sensor_id;sensor_type;location;lat;lon;timestamp;P1;durP1;ratioP1;P2;durP2;ratioP2
44228;SDS011;29904;51.058;5.378;2023-08-08T00:01:35;3.30;;;2.00;;
44228;SDS011;29904;51.058;5.378;2023-08-08T00:04:08;2.85;;;1.58;;
44228;SDS011;29904;51.058;5.378;2023-08-08T00:06:35;3.20;;;1.57;;
44228;SDS011;29904;51.058;5.378;2023-08-08T00:09:00;3.17;;;1.63;;
44228;SDS011;29904;51.058;5.378;2023-08-08T00:11:28;3.08;;;1.65;;
44228;SDS011;29904;51.058;5.378;2023-08-08T00:13:55;2.80;;;1.63;;
44228;SDS011;29904;51.058;5.378;2023-08-08T00:16:21;3.03;;;1.65;;
44228;SDS011;29904;51.058;5.378;2023-08-08T00:18:47;3.25;;;1.90;;
44228;SDS011;29904;51.058;5.378;2023-08-08T00:21:15;2.28;;;1.58;;
44228;SDS011;29904;51.058;5.378;2023-08-08T00:23:41;3.17;;;1.70;;
44228;SDS011;29904;51.058;5.378;2023-08-08T00:26:07;3.75;;;1.73;;
44228;SDS011;29904;51.058;5.378;2023-08-08T00:28:36;3.50;;;1.77;;
44228;SDS011;29904;51.058;5.378;2023-08-08T00:31:02;4.23;;;2.00;;
44228;SDS011;29904;51.058;5.378;2023-08-08T00:33:28;2.57;;;1.80;;
44228;SDS011;29904;51.058;5.378;2023-08-08T00:35:54;2.60;;;1.70;;
44228;SDS011;29904;51.058;5.378;2023-08-08T00:38:21;2.40;;;1.70;;
44228;SDS011;29904;51.058;5.378;2023-08-08T00:40:47;2.90;;;1.35;;
44228;SDS011;29904;51.058;5.378;2023-08-08T00:43:13;3.13;;;1.70;;
44228;SDS011;29904;51.058;5.378;2023-08-08T00:45:39;3.17;;;1.70;;
44228;SDS011;29904;51.058;5.378;2023-08-08T00:48:08;2.58;;;1.52;;
44228;SDS011;29904;51.058;5.378;2023-08-08T00:50:34;2.58;;;1.63;;
44228;SDS011;29904;51.058;5.378;2023-08-08T00:53:03;4.55;;;1.88;;
44228;SDS011;29904;51.058;5.378;2023-08-08T00:55:29;3.58;;;1.65;;
44228;SDS011;29904;51.058;5.378;2023-08-08T00:57:56;2.40;;;1.60;;
44228;SDS011;29904;51.058;5.378;2023-08-08T01:00:24;3.60;;;1.50;;
44228;SDS011;29904;51.058;5.378;2023-08-08T01:02:49;2.50;;;1.50;;
44228;SDS011;29904;51.058;5.378;2023-08-08T01:05:15;3.45;;;1.58;;
44228;SDS011;29904;51.058;5.378;2023-08-08T01:10:47;2.45;;;1.63;;
44228;SDS011;29904;51.058;5.378;2023-08-08T01:13:17;2.65;;;1.73;;
44228;SDS011;29904;51.058;5.378;2023-08-08T01:15:46;3.00;;;1.60;;
44228;SDS011;29904;51.058;5.378;2023-08-08T01:18:13;4.13;;;1.77;;
44228;SDS011;29904;51.058;5.378;2023-08-08T01:20:40;2.88;;;1.40;;
44228;SDS011;29904;51.058;5.378;2023-08-08T01:23:09;5.78;;;1.50;;
44228;SDS011;29904;51.058;5.378;2023-08-08T01:25:36;3.57;;;1.60;;
44228;SDS011;29904;51.058;5.378;2023-08-08T01:28:05;3.50;;;1.60;;
44228;SDS011;29904;51.058;5.378;2023-08-08T01:30:31;2.97;;;1.60;;
44228;SDS011;29904;51.058;5.378;2023-08-08T01:32:57;4.32;;;1.80;;
44228;SDS011;29904;51.058;5.378;2023-08-08T01:35:26;3.65;;;1.75;;
44228;SDS011;29904;51.058;5.378;2023-08-08T01:38:11;3.92;;;1.63;;
44228;SDS011;29904;51.058;5.378;2023-08-08T01:40:41;2.53;;;1.60;;
44228;SDS011;29904;51.058;5.378;2023-08-08T01:43:09;2.92;;;1.65;;
44228;SDS011;29904;51.058;5.378;2023-08-08T01:45:35;4.03;;;1.70;;
44228;SDS011;29904;51.058;5.378;2023-08-08T01:48:12;1.98;;;1.35;;
44228;SDS011;29904;51.058;5.378;2023-08-08T01:50:38;3.35;;;1.60;;
44228;SDS011;29904;51.058;5.378;2023-08-08T01:53:05;4.18;;;1.60;;
44228;SDS011;29904;51.058;5.378;2023-08-08T01:55:31;4.20;;;1.60;;
44228;SDS011;29904;51.058;5.378;2023-08-08T01:57:57;4.32;;;1.80;;
44228;SDS011;29904;51.058;5.378;2023-08-08T02:00:23;3.13;;;1.42;;
44228;SDS011;29904;51.058;5.378;2023-08-08T02:02:48;3.67;;;1.73;;
44228;SDS011;29904;51.058;5.378;2023-08-08T02:05:14;3.83;;;1.50;;
44228;SDS011;29904;51.058;5.378;2023-08-08T02:07:42;3.22;;;1.60;;
44228;SDS011;29904;51.058;5.378;2023-08-08T02:10:08;4.85;;;1.40;;
44228;SDS011;29904;51.058;5.378;2023-08-08T02:12:33;4.13;;;1.50;;
44228;SDS011;29904;51.058;5.378;2023-08-08T02:15:01;3.78;;;1.60;;
44228;SDS011;29904;51.058;5.378;2023-08-08T02:17:27;4.27;;;1.60;;
44228;SDS011;29904;51.058;5.378;2023-08-08T02:19:54;3.50;;;1.30;;
44228;SDS011;29904;51.058;5.378;2023-08-08T02:22:20;5.67;;;1.50;;
44228;SDS011;29904;51.058;5.378;2023-08-08T02:24:45;3.93;;;1.40;;
44228;SDS011;29904;51.058;5.378;2023-08-08T02:27:11;2.97;;;1.50;;
44228;SDS011;29904;51.058;5.378;2023-08-08T02:29:37;4.93;;;1.80;;
44228;SDS011;29904;51.058;5.378;2023-08-08T02:32:03;3.00;;;1.50;;
44228;SDS011;29904;51.058;5.378;2023-08-08T02:34:29;3.40;;;1.70;;
44228;SDS011;29904;51.058;5.378;2023-08-08T02:36:55;5.80;;;1.70;;
44228;SDS011;29904;51.058;5.378;2023-08-08T02:39:21;5.38;;;1.95;;
44228;SDS011;29904;51.058;5.378;2023-08-08T02:41:49;4.10;;;1.80;;
44228;SDS011;29904;51.058;5.378;2023-08-08T02:44:14;3.88;;;1.60;;
44228;SDS011;29904;51.058;5.378;2023-08-08T02:46:40;4.07;;;1.83;;
44228;SDS011;29904;51.058;5.378;2023-08-08T02:49:06;4.13;;;1.70;;
44228;SDS011;29904;51.058;5.378;2023-08-08T02:51:32;4.15;;;1.60;;
44228;SDS011;29904;51.058;5.378;2023-08-08T02:53:57;4.37;;;1.70;;
44228;SDS011;29904;51.058;5.378;2023-08-08T02:56:23;4.10;;;1.60;;
44228;SDS011;29904;51.058;5.378;2023-08-08T02:58:49;4.23;;;1.73;;
44228;SDS011;29904;51.058;5.378;2023-08-08T03:01:15;4.70;;;1.70;;
44228;SDS011;29904;51.058;5.378;2023-08-08T03:03:43;3.65;;;1.80;;
44228;SDS011;29904;51.058;5.378;2023-08-08T03:06:09;4.22;;;2.00;;
44228;SDS011;29904;51.058;5.378;2023-08-08T03:08:34;4.25;;;1.73;;
44228;SDS011;29904;51.058;5.378;2023-08-08T03:11:00;4.80;;;1.92;;
44228;SDS011;29904;51.058;5.378;2023-08-08T03:13:26;3.20;;;1.80;;
44228;SDS011;29904;51.058;5.378;2023-08-08T03:15:51;5.50;;;2.30;;
44228;SDS011;29904;51.058;5.378;2023-08-08T03:18:17;5.80;;;2.17;;
44228;SDS011;29904;51.058;5.378;2023-08-08T03:20:43;5.10;;;1.88;;
44228;SDS011;29904;51.058;5.378;2023-08-08T03:23:09;5.40;;;1.88;;
44228;SDS011;29904;51.058;5.378;2023-08-08T03:25:36;4.78;;;1.70;;
44228;SDS011;29904;51.058;5.378;2023-08-08T03:28:02;5.10;;;2.15;;
44228;SDS011;29904;51.058;5.378;2023-08-08T03:30:28;5.57;;;2.15;;
44228;SDS011;29904;51.058;5.378;2023-08-08T03:32:54;4.15;;;1.90;;
44228;SDS011;29904;51.058;5.378;2023-08-08T03:35:20;6.00;;;2.10;;
44228;SDS011;29904;51.058;5.378;2023-08-08T03:37:45;5.57;;;1.97;;
44228;SDS011;29904;51.058;5.378;2023-08-08T03:40:13;6.95;;;2.20;;
44228;SDS011;29904;51.058;5.378;2023-08-08T03:42:39;3.95;;;2.20;;
44228;SDS011;29904;51.058;5.378;2023-08-08T03:45:05;5.65;;;2.30;;
44228;SDS011;29904;51.058;5.378;2023-08-08T03:47:31;4.47;;;2.28;;
44228;SDS011;29904;51.058;5.378;2023-08-08T03:49:57;4.90;;;2.03;;
44228;SDS011;29904;51.058;5.378;2023-08-08T03:52:23;5.68;;;2.05;;
44228;SDS011;29904;51.058;5.378;2023-08-08T03:54:49;6.78;;;2.17;;
44228;SDS011;29904;51.058;5.378;2023-08-08T03:57:16;5.72;;;2.25;;
44228;SDS011;29904;51.058;5.378;2023-08-08T03:59:46;6.87;;;2.13;;
44228;SDS011;29904;51.058;5.378;2023-08-08T04:02:11;7.03;;;2.20;;
44228;SDS011;29904;51.058;5.378;2023-08-08T04:04:37;6.10;;;2.40;;
44228;SDS011;29904;51.058;5.378;2023-08-08T04:07:03;10.48;;;2.75;;
44228;SDS011;29904;51.058;5.378;2023-08-08T04:09:29;6.38;;;2.35;;
44228;SDS011;29904;51.058;5.378;2023-08-08T04:11:56;3.95;;;2.30;;
44228;SDS011;29904;51.058;5.378;2023-08-08T04:14:22;7.97;;;2.72;;
44228;SDS011;29904;51.058;5.378;2023-08-08T04:16:47;6.95;;;2.70;;
44228;SDS011;29904;51.058;5.378;2023-08-08T04:19:13;6.85;;;2.55;;
44228;SDS011;29904;51.058;5.378;2023-08-08T04:21:39;7.35;;;2.47;;
44228;SDS011;29904;51.058;5.378;2023-08-08T04:24:04;5.77;;;2.30;;
44228;SDS011;29904;51.058;5.378;2023-08-08T04:26:32;5.53;;;2.27;;
44228;SDS011;29904;51.058;5.378;2023-08-08T04:29:02;5.25;;;2.22;;
44228;SDS011;29904;51.058;5.378;2023-08-08T04:31:28;6.55;;;2.50;;
44228;SDS011;29904;51.058;5.378;2023-08-08T04:33:54;5.72;;;2.42;;
44228;SDS011;29904;51.058;5.378;2023-08-08T04:36:23;5.93;;;2.28;;
44228;SDS011;29904;51.058;5.378;2023-08-08T04:38:49;6.55;;;2.38;;
44228;SDS011;29904;51.058;5.378;2023-08-08T04:41:14;5.70;;;2.50;;
44228;SDS011;29904;51.058;5.378;2023-08-08T04:43:42;5.13;;;2.33;;
44228;SDS011;29904;51.058;5.378;2023-08-08T04:46:08;7.30;;;2.30;;
44228;SDS011;29904;51.058;5.378;2023-08-08T04:48:34;4.87;;;1.90;;
44228;SDS011;29904;51.058;5.378;2023-08-08T04:51:02;5.13;;;2.50;;
44228;SDS011;29904;51.058;5.378;2023-08-08T04:53:29;5.22;;;2.42;;
44228;SDS011;29904;51.058;5.378;2023-08-08T04:55:55;7.03;;;2.23;;
44228;SDS011;29904;51.058;5.378;2023-08-08T04:58:21;6.27;;;2.40;;
44228;SDS011;29904;51.058;5.378;2023-08-08T05:00:47;6.57;;;2.23;;
44228;SDS011;29904;51.058;5.378;2023-08-08T05:03:12;5.80;;;1.90;;
44228;SDS011;29904;51.058;5.378;2023-08-08T05:05:38;7.82;;;2.50;;
44228;SDS011;29904;51.058;5.378;2023-08-08T05:08:04;6.15;;;2.63;;
44228;SDS011;29904;51.058;5.378;2023-08-08T05:10:30;5.95;;;2.28;;
44228;SDS011;29904;51.058;5.378;2023-08-08T05:12:56;7.90;;;2.30;;
44228;SDS011;29904;51.058;5.378;2023-08-08T05:15:22;6.60;;;2.30;;
44228;SDS011;29904;51.058;5.378;2023-08-08T05:17:48;6.00;;;2.40;;
44228;SDS011;29904;51.058;5.378;2023-08-08T05:20:14;5.38;;;2.10;;
44228;SDS011;29904;51.058;5.378;2023-08-08T05:22:40;6.50;;;2.37;;
44228;SDS011;29904;51.058;5.378;2023-08-08T05:25:06;6.57;;;2.27;;
44228;SDS011;29904;51.058;5.378;2023-08-08T05:27:32;6.63;;;2.22;;
44228;SDS011;29904;51.058;5.378;2023-08-08T05:29:57;5.63;;;2.20;;
44228;SDS011;29904;51.058;5.378;2023-08-08T05:32:23;8.30;;;2.50;;
44228;SDS011;29904;51.058;5.378;2023-08-08T05:34:50;7.60;;;2.60;;
44228;SDS011;29904;51.058;5.378;2023-08-08T05:37:16;7.95;;;2.50;;
44228;SDS011;29904;51.058;5.378;2023-08-08T05:39:41;6.77;;;2.47;;
44228;SDS011;29904;51.058;5.378;2023-08-08T05:42:07;8.20;;;2.70;;
44228;SDS011;29904;51.058;5.378;2023-08-08T05:44:33;6.80;;;2.50;;
44228;SDS011;29904;51.058;5.378;2023-08-08T05:46:59;6.97;;;2.40;;
44228;SDS011;29904;51.058;5.378;2023-08-08T05:49:26;4.95;;;2.50;;
44228;SDS011;29904;51.058;5.378;2023-08-08T05:51:52;7.65;;;2.47;;
44228;SDS011;29904;51.058;5.378;2023-08-08T05:54:18;7.03;;;2.37;;
44228;SDS011;29904;51.058;5.378;2023-08-08T05:56:44;5.60;;;2.30;;
44228;SDS011;29904;51.058;5.378;2023-08-08T05:59:09;7.97;;;2.30;;
44228;SDS011;29904;51.058;5.378;2023-08-08T06:01:35;9.25;;;2.60;;
44228;SDS011;29904;51.058;5.378;2023-08-08T06:04:01;9.30;;;2.90;;
44228;SDS011;29904;51.058;5.378;2023-08-08T06:06:26;8.30;;;2.60;;
44228;SDS011;29904;51.058;5.378;2023-08-08T06:08:52;8.02;;;2.80;;
44228;SDS011;29904;51.058;5.378;2023-08-08T06:11:20;4.45;;;2.30;;
44228;SDS011;29904;51.058;5.378;2023-08-08T06:13:46;11.90;;;3.20;;
44228;SDS011;29904;51.058;5.378;2023-08-08T06:16:13;10.63;;;2.72;;
44228;SDS011;29904;51.058;5.378;2023-08-08T06:18:40;7.10;;;2.35;;
44228;SDS011;29904;51.058;5.378;2023-08-08T06:21:05;8.17;;;2.20;;
44228;SDS011;29904;51.058;5.378;2023-08-08T06:23:31;8.05;;;2.70;;
44228;SDS011;29904;51.058;5.378;2023-08-08T06:26:01;7.80;;;2.40;;
44228;SDS011;29904;51.058;5.378;2023-08-08T06:28:27;6.03;;;2.53;;
44228;SDS011;29904;51.058;5.378;2023-08-08T06:30:55;6.60;;;2.35;;
44228;SDS011;29904;51.058;5.378;2023-08-08T06:33:21;5.53;;;2.20;;
44228;SDS011;29904;51.058;5.378;2023-08-08T06:35:47;5.57;;;2.40;;
44228;SDS011;29904;51.058;5.378;2023-08-08T06:38:13;7.22;;;2.50;;
44228;SDS011;29904;51.058;5.378;2023-08-08T06:40:41;7.78;;;2.55;;
44228;SDS011;29904;51.058;5.378;2023-08-08T06:43:06;9.30;;;2.50;;
44228;SDS011;29904;51.058;5.378;2023-08-08T06:45:32;7.60;;;2.20;;
44228;SDS011;29904;51.058;5.378;2023-08-08T06:47:58;8.63;;;2.50;;
44228;SDS011;29904;51.058;5.378;2023-08-08T06:50:23;8.48;;;2.33;;
44228;SDS011;29904;51.058;5.378;2023-08-08T06:52:49;7.88;;;2.00;;
44228;SDS011;29904;51.058;5.378;2023-08-08T06:55:15;8.77;;;2.20;;
44228;SDS011;29904;51.058;5.378;2023-08-08T06:57:41;7.87;;;1.90;;
44228;SDS011;29904;51.058;5.378;2023-08-08T07:00:07;6.93;;;2.07;;
44228;SDS011;29904;51.058;5.378;2023-08-08T07:02:34;7.22;;;2.35;;
44228;SDS011;29904;51.058;5.378;2023-08-08T07:05:01;9.43;;;2.10;;
44228;SDS011;29904;51.058;5.378;2023-08-08T07:07:29;6.37;;;1.83;;
44228;SDS011;29904;51.058;5.378;2023-08-08T07:09:56;7.00;;;1.70;;
44228;SDS011;29904;51.058;5.378;2023-08-08T07:12:23;6.20;;;1.92;;
44228;SDS011;29904;51.058;5.378;2023-08-08T07:14:49;6.47;;;1.88;;
44228;SDS011;29904;51.058;5.378;2023-08-08T07:17:15;6.03;;;1.83;;
44228;SDS011;29904;51.058;5.378;2023-08-08T07:19:44;8.75;;;2.10;;
44228;SDS011;29904;51.058;5.378;2023-08-08T07:22:11;6.18;;;1.80;;
44228;SDS011;29904;51.058;5.378;2023-08-08T07:24:37;6.30;;;1.92;;
44228;SDS011;29904;51.058;5.378;2023-08-08T07:27:04;7.95;;;1.95;;
44228;SDS011;29904;51.058;5.378;2023-08-08T07:29:29;6.07;;;1.92;;
44228;SDS011;29904;51.058;5.378;2023-08-08T07:31:57;7.25;;;1.70;;
44228;SDS011;29904;51.058;5.378;2023-08-08T07:34:23;6.15;;;1.75;;
44228;SDS011;29904;51.058;5.378;2023-08-08T07:36:50;5.88;;;1.75;;
44228;SDS011;29904;51.058;5.378;2023-08-08T07:39:17;7.70;;;1.85;;
44228;SDS011;29904;51.058;5.378;2023-08-08T07:41:43;5.80;;;1.60;;
44228;SDS011;29904;51.058;5.378;2023-08-08T07:44:09;8.80;;;1.83;;
44228;SDS011;29904;51.058;5.378;2023-08-08T07:46:35;6.93;;;1.70;;
44228;SDS011;29904;51.058;5.378;2023-08-08T07:49:01;7.40;;;1.90;;
44228;SDS011;29904;51.058;5.378;2023-08-08T07:51:28;5.45;;;1.88;;
44228;SDS011;29904;51.058;5.378;2023-08-08T07:53:56;5.47;;;1.83;;
44228;SDS011;29904;51.058;5.378;2023-08-08T07:56:24;5.63;;;1.75;;
44228;SDS011;29904;51.058;5.378;2023-08-08T07:58:49;5.13;;;1.63;;
44228;SDS011;29904;51.058;5.378;2023-08-08T08:01:15;5.80;;;1.80;;
44228;SDS011;29904;51.058;5.378;2023-08-08T08:03:41;8.52;;;2.30;;
44228;SDS011;29904;51.058;5.378;2023-08-08T08:06:07;5.20;;;1.70;;
44228;SDS011;29904;51.058;5.378;2023-08-08T08:08:33;7.07;;;1.90;;
44228;SDS011;29904;51.058;5.378;2023-08-08T08:11:02;8.88;;;2.13;;
44228;SDS011;29904;51.058;5.378;2023-08-08T08:13:30;7.07;;;1.80;;
44228;SDS011;29904;51.058;5.378;2023-08-08T08:15:56;4.50;;;1.73;;
44228;SDS011;29904;51.058;5.378;2023-08-08T08:18:21;5.97;;;1.73;;
44228;SDS011;29904;51.058;5.378;2023-08-08T08:20:48;8.90;;;2.13;;
44228;SDS011;29904;51.058;5.378;2023-08-08T08:23:14;6.88;;;1.67;;
44228;SDS011;29904;51.058;5.378;2023-08-08T08:25:40;5.60;;;1.85;;
44228;SDS011;29904;51.058;5.378;2023-08-08T08:28:06;6.63;;;1.98;;
44228;SDS011;29904;51.058;5.378;2023-08-08T08:30:32;5.70;;;1.85;;
44228;SDS011;29904;51.058;5.378;2023-08-08T08:32:58;7.97;;;1.80;;
44228;SDS011;29904;51.058;5.378;2023-08-08T08:35:26;5.43;;;1.73;;
44228;SDS011;29904;51.058;5.378;2023-08-08T08:37:52;5.73;;;1.50;;
44228;SDS011;29904;51.058;5.378;2023-08-08T08:40:18;6.88;;;1.55;;
44228;SDS011;29904;51.058;5.378;2023-08-08T08:42:45;8.07;;;1.70;;
44228;SDS011;29904;51.058;5.378;2023-08-08T08:45:13;6.35;;;1.30;;
44228;SDS011;29904;51.058;5.378;2023-08-08T08:47:41;5.03;;;1.60;;
44228;SDS011;29904;51.058;5.378;2023-08-08T08:50:11;6.45;;;1.58;;
44228;SDS011;29904;51.058;5.378;2023-08-08T08:52:40;5.95;;;1.58;;
44228;SDS011;29904;51.058;5.378;2023-08-08T08:55:07;4.50;;;1.40;;
44228;SDS011;29904;51.058;5.378;2023-08-08T08:57:34;7.10;;;1.75;;
44228;SDS011;29904;51.058;5.378;2023-08-08T09:00:00;4.85;;;1.55;;
44228;SDS011;29904;51.058;5.378;2023-08-08T09:02:26;5.30;;;1.58;;
44228;SDS011;29904;51.058;5.378;2023-08-08T09:04:52;6.73;;;1.60;;
44228;SDS011;29904;51.058;5.378;2023-08-08T09:07:19;6.50;;;1.40;;
44228;SDS011;29904;51.058;5.378;2023-08-08T09:09:47;6.55;;;1.55;;
44228;SDS011;29904;51.058;5.378;2023-08-08T09:12:13;4.70;;;1.50;;
44228;SDS011;29904;51.058;5.378;2023-08-08T09:14:41;4.87;;;1.50;;
44228;SDS011;29904;51.058;5.378;2023-08-08T09:17:11;4.78;;;1.40;;
44228;SDS011;29904;51.058;5.378;2023-08-08T09:19:44;6.13;;;1.60;;
44228;SDS011;29904;51.058;5.378;2023-08-08T09:22:14;6.17;;;1.50;;
44228;SDS011;29904;51.058;5.378;2023-08-08T09:24:40;4.47;;;1.50;;
44228;SDS011;29904;51.058;5.378;2023-08-08T09:27:07;6.60;;;1.85;;
44228;SDS011;29904;51.058;5.378;2023-08-08T09:29:35;4.70;;;1.50;;
44228;SDS011;29904;51.058;5.378;2023-08-08T09:32:05;4.85;;;1.60;;
44228;SDS011;29904;51.058;5.378;2023-08-08T09:34:31;4.72;;;1.50;;
44228;SDS011;29904;51.058;5.378;2023-08-08T09:36:57;6.47;;;1.70;;
44228;SDS011;29904;51.058;5.378;2023-08-08T09:39:25;5.03;;;1.60;;
44228;SDS011;29904;51.058;5.378;2023-08-08T09:41:51;5.28;;;1.80;;
44228;SDS011;29904;51.058;5.378;2023-08-08T09:44:17;5.03;;;1.47;;
44228;SDS011;29904;51.058;5.378;2023-08-08T09:46:42;5.25;;;1.60;;
44228;SDS011;29904;51.058;5.378;2023-08-08T09:49:11;4.65;;;1.40;;
44228;SDS011;29904;51.058;5.378;2023-08-08T09:51:39;5.00;;;1.80;;
44228;SDS011;29904;51.058;5.378;2023-08-08T09:54:05;4.25;;;1.60;;
44228;SDS011;29904;51.058;5.378;2023-08-08T09:56:33;5.45;;;1.38;;
44228;SDS011;29904;51.058;5.378;2023-08-08T09:58:59;5.38;;;1.80;;
44228;SDS011;29904;51.058;5.378;2023-08-08T10:01:27;5.23;;;1.70;;
44228;SDS011;29904;51.058;5.378;2023-08-08T10:03:52;5.78;;;1.90;;
44228;SDS011;29904;51.058;5.378;2023-08-08T10:06:20;5.28;;;2.00;;
44228;SDS011;29904;51.058;5.378;2023-08-08T10:08:46;6.90;;;1.70;;
44228;SDS011;29904;51.058;5.378;2023-08-08T10:11:12;5.50;;;1.80;;
44228;SDS011;29904;51.058;5.378;2023-08-08T10:13:46;3.13;;;1.50;;
44228;SDS011;29904;51.058;5.378;2023-08-08T10:16:14;4.10;;;1.55;;
44228;SDS011;29904;51.058;5.378;2023-08-08T10:18:42;5.15;;;1.60;;
44228;SDS011;29904;51.058;5.378;2023-08-08T10:21:08;5.43;;;1.65;;
44228;SDS011;29904;51.058;5.378;2023-08-08T10:23:38;5.22;;;1.60;;
44228;SDS011;29904;51.058;5.378;2023-08-08T10:26:05;3.75;;;1.52;;
44228;SDS011;29904;51.058;5.378;2023-08-08T10:28:57;3.63;;;1.48;;
44228;SDS011;29904;51.058;5.378;2023-08-08T10:31:23;5.32;;;1.60;;
44228;SDS011;29904;51.058;5.378;2023-08-08T10:34:01;5.70;;;1.70;;
44228;SDS011;29904;51.058;5.378;2023-08-08T10:36:48;4.00;;;1.45;;
44228;SDS011;29904;51.058;5.378;2023-08-08T10:39:16;5.75;;;1.58;;
44228;SDS011;29904;51.058;5.378;2023-08-08T10:41:49;3.60;;;1.50;;
44228;SDS011;29904;51.058;5.378;2023-08-08T10:44:25;4.72;;;1.50;;
44228;SDS011;29904;51.058;5.378;2023-08-08T10:46:51;7.43;;;1.67;;
44228;SDS011;29904;51.058;5.378;2023-08-08T10:49:18;5.25;;;1.50;;
44228;SDS011;29904;51.058;5.378;2023-08-08T10:51:45;6.15;;;1.48;;
44228;SDS011;29904;51.058;5.378;2023-08-08T10:54:16;4.38;;;1.50;;
44228;SDS011;29904;51.058;5.378;2023-08-08T10:56:52;2.55;;;1.38;;
44228;SDS011;29904;51.058;5.378;2023-08-08T10:59:21;5.18;;;1.50;;
44228;SDS011;29904;51.058;5.378;2023-08-08T11:01:48;2.60;;;1.20;;
44228;SDS011;29904;51.058;5.378;2023-08-08T11:04:16;3.38;;;1.30;;
44228;SDS011;29904;51.058;5.378;2023-08-08T11:06:44;3.35;;;1.10;;
44228;SDS011;29904;51.058;5.378;2023-08-08T11:09:10;4.93;;;1.45;;
44228;SDS011;29904;51.058;5.378;2023-08-08T11:11:39;3.55;;;1.20;;
44228;SDS011;29904;51.058;5.378;2023-08-08T11:14:13;2.78;;;1.20;;
44228;SDS011;29904;51.058;5.378;2023-08-08T11:16:40;3.88;;;1.50;;
44228;SDS011;29904;51.058;5.378;2023-08-08T11:19:09;4.78;;;1.20;;
44228;SDS011;29904;51.058;5.378;2023-08-08T11:21:36;4.13;;;1.20;;
44228;SDS011;29904;51.058;5.378;2023-08-08T11:24:04;4.43;;;1.50;;
44228;SDS011;29904;51.058;5.378;2023-08-08T11:26:33;7.18;;;1.40;;
44228;SDS011;29904;51.058;5.378;2023-08-08T11:28:59;4.68;;;1.40;;
44228;SDS011;29904;51.058;5.378;2023-08-08T11:31:26;2.63;;;1.20;;
44228;SDS011;29904;51.058;5.378;2023-08-08T11:33:53;7.05;;;1.60;;
44228;SDS011;29904;51.058;5.378;2023-08-08T11:36:20;4.22;;;1.33;;
44228;SDS011;29904;51.058;5.378;2023-08-08T11:38:47;4.43;;;1.33;;
44228;SDS011;29904;51.058;5.378;2023-08-08T11:41:15;3.80;;;1.27;;
44228;SDS011;29904;51.058;5.378;2023-08-08T11:43:41;4.50;;;1.30;;
44228;SDS011;29904;51.058;5.378;2023-08-08T11:46:09;3.63;;;1.30;;
44228;SDS011;29904;51.058;5.378;2023-08-08T11:48:40;3.65;;;1.30;;
44228;SDS011;29904;51.058;5.378;2023-08-08T11:51:06;5.28;;;1.45;;
44228;SDS011;29904;51.058;5.378;2023-08-08T11:53:33;3.92;;;1.33;;
44228;SDS011;29904;51.058;5.378;2023-08-08T11:56:02;2.78;;;1.08;;
44228;SDS011;29904;51.058;5.378;2023-08-08T11:58:29;3.70;;;1.30;;
44228;SDS011;29904;51.058;5.378;2023-08-08T12:00:56;2.83;;;1.00;;
44228;SDS011;29904;51.058;5.378;2023-08-08T12:03:25;2.05;;;1.10;;
44228;SDS011;29904;51.058;5.378;2023-08-08T12:05:51;2.40;;;0.90;;
44228;SDS011;29904;51.058;5.378;2023-08-08T12:08:20;3.60;;;1.23;;
44228;SDS011;29904;51.058;5.378;2023-08-08T12:10:50;2.75;;;1.02;;
44228;SDS011;29904;51.058;5.378;2023-08-08T12:13:21;1.75;;;1.00;;
44228;SDS011;29904;51.058;5.378;2023-08-08T12:15:48;2.92;;;1.20;;
44228;SDS011;29904;51.058;5.378;2023-08-08T12:18:17;4.05;;;1.08;;
44228;SDS011;29904;51.058;5.378;2023-08-08T12:20:43;2.25;;;0.95;;
44228;SDS011;29904;51.058;5.378;2023-08-08T12:23:09;2.22;;;1.05;;
44228;SDS011;29904;51.058;5.378;2023-08-08T12:25:35;2.08;;;1.10;;
44228;SDS011;29904;51.058;5.378;2023-08-08T12:28:03;2.95;;;1.02;;
44228;SDS011;29904;51.058;5.378;2023-08-08T12:30:30;3.10;;;1.20;;
44228;SDS011;29904;51.058;5.378;2023-08-08T12:32:56;2.45;;;1.30;;
44228;SDS011;29904;51.058;5.378;2023-08-08T12:35:24;2.83;;;1.20;;
44228;SDS011;29904;51.058;5.378;2023-08-08T12:37:51;4.45;;;1.27;;
44228;SDS011;29904;51.058;5.378;2023-08-08T12:40:17;2.90;;;1.10;;
44228;SDS011;29904;51.058;5.378;2023-08-08T12:42:47;3.50;;;1.30;;
44228;SDS011;29904;51.058;5.378;2023-08-08T12:45:13;1.88;;;1.20;;
44228;SDS011;29904;51.058;5.378;2023-08-08T12:47:39;2.53;;;1.20;;
44228;SDS011;29904;51.058;5.378;2023-08-08T12:50:07;4.47;;;1.30;;
44228;SDS011;29904;51.058;5.378;2023-08-08T12:52:33;2.78;;;1.15;;
44228;SDS011;29904;51.058;5.378;2023-08-08T12:54:58;3.83;;;1.10;;
44228;SDS011;29904;51.058;5.378;2023-08-08T12:57:25;3.10;;;1.20;;
44228;SDS011;29904;51.058;5.378;2023-08-08T12:59:50;2.67;;;1.20;;
44228;SDS011;29904;51.058;5.378;2023-08-08T13:02:16;2.85;;;0.93;;
44228;SDS011;29904;51.058;5.378;2023-08-08T13:04:42;3.92;;;1.10;;
44228;SDS011;29904;51.058;5.378;2023-08-08T13:07:08;2.27;;;1.10;;
44228;SDS011;29904;51.058;5.378;2023-08-08T13:09:34;2.92;;;1.10;;
44228;SDS011;29904;51.058;5.378;2023-08-08T13:12:00;2.65;;;1.05;;
44228;SDS011;29904;51.058;5.378;2023-08-08T13:14:26;3.23;;;1.20;;
44228;SDS011;29904;51.058;5.378;2023-08-08T13:16:52;1.77;;;0.98;;
44228;SDS011;29904;51.058;5.378;2023-08-08T13:19:20;1.95;;;1.00;;
44228;SDS011;29904;51.058;5.378;2023-08-08T13:21:49;1.95;;;0.85;;
44228;SDS011;29904;51.058;5.378;2023-08-08T13:24:19;2.33;;;0.80;;
44228;SDS011;29904;51.058;5.378;2023-08-08T13:26:49;2.05;;;0.70;;
44228;SDS011;29904;51.058;5.378;2023-08-08T13:29:15;1.37;;;0.70;;
44228;SDS011;29904;51.058;5.378;2023-08-08T13:31:41;2.60;;;0.90;;
44228;SDS011;29904;51.058;5.378;2023-08-08T13:34:08;1.85;;;1.00;;
44228;SDS011;29904;51.058;5.378;2023-08-08T13:36:34;1.08;;;0.80;;
44228;SDS011;29904;51.058;5.378;2023-08-08T13:39:00;2.70;;;0.80;;
44228;SDS011;29904;51.058;5.378;2023-08-08T13:41:26;2.25;;;0.90;;
44228;SDS011;29904;51.058;5.378;2023-08-08T13:43:53;2.22;;;0.80;;
44228;SDS011;29904;51.058;5.378;2023-08-08T13:46:19;2.45;;;0.90;;
44228;SDS011;29904;51.058;5.378;2023-08-08T13:48:45;2.87;;;0.80;;
44228;SDS011;29904;51.058;5.378;2023-08-08T13:51:11;3.63;;;1.10;;
44228;SDS011;29904;51.058;5.378;2023-08-08T13:53:36;1.70;;;0.70;;
44228;SDS011;29904;51.058;5.378;2023-08-08T13:56:02;2.88;;;1.00;;
44228;SDS011;29904;51.058;5.378;2023-08-08T13:58:28;3.20;;;1.00;;
44228;SDS011;29904;51.058;5.378;2023-08-08T14:00:54;2.23;;;1.00;;
44228;SDS011;29904;51.058;5.378;2023-08-08T14:03:22;3.23;;;1.10;;
44228;SDS011;29904;51.058;5.378;2023-08-08T14:05:49;2.55;;;0.80;;
44228;SDS011;29904;51.058;5.378;2023-08-08T14:08:19;1.60;;;0.90;;
44228;SDS011;29904;51.058;5.378;2023-08-08T14:10:45;1.50;;;0.80;;
44228;SDS011;29904;51.058;5.378;2023-08-08T14:13:11;1.95;;;0.90;;
44228;SDS011;29904;51.058;5.378;2023-08-08T14:15:39;2.60;;;0.80;;
44228;SDS011;29904;51.058;5.378;2023-08-08T14:18:05;2.50;;;0.90;;
44228;SDS011;29904;51.058;5.378;2023-08-08T14:20:32;3.40;;;1.20;;
44228;SDS011;29904;51.058;5.378;2023-08-08T14:22:57;2.90;;;1.02;;
44228;SDS011;29904;51.058;5.378;2023-08-08T14:25:23;1.43;;;0.77;;
44228;SDS011;29904;51.058;5.378;2023-08-08T14:27:49;2.08;;;0.80;;
44228;SDS011;29904;51.058;5.378;2023-08-08T14:30:15;1.42;;;0.75;;
44228;SDS011;29904;51.058;5.378;2023-08-08T14:32:41;3.03;;;1.00;;
44228;SDS011;29904;51.058;5.378;2023-08-08T14:35:07;1.92;;;0.70;;
44228;SDS011;29904;51.058;5.378;2023-08-08T14:37:34;1.25;;;0.70;;
44228;SDS011;29904;51.058;5.378;2023-08-08T14:40:00;2.38;;;0.70;;
44228;SDS011;29904;51.058;5.378;2023-08-08T14:42:26;1.60;;;0.65;;
44228;SDS011;29904;51.058;5.378;2023-08-08T14:44:52;1.58;;;0.60;;
44228;SDS011;29904;51.058;5.378;2023-08-08T14:47:18;1.02;;;0.60;;
44228;SDS011;29904;51.058;5.378;2023-08-08T14:49:43;1.60;;;0.70;;